sensor_id;sensor_type;location;lat;lon;timestamp;pressure;altitude;pressure_sealevel;temperature;humidity
79534;BME280;68982;52.160;6.736;2023-04-02T00:00:19;100902.03;;;5.44;84.57
79534;BME280;68982;52.160;6.736;2023-04-02T00:07:41;100914.84;;;5.40;85.08
79534;BME280;68982;52.160;6.736;2023-04-02T00:10:35;100924.56;;;5.41;85.36
79534;BME280;68982;52.160;6.736;2023-04-02T00:15:34;100930.06;;;5.39;85.17
79534;BME280;68982;52.160;6.736;2023-04-02T00:18:00;100933.34;;;5.33;85.08
79534;BME280;68982;52.160;6.736;2023-04-02T00:20:29;100937.94;;;5.23;86.17
79534;BME280;68982;52.160;6.736;2023-04-02T00:22:57;100944.81;;;5.26;84.96
79534;BME280;68982;52.160;6.736;2023-04-02T00:25:26;100947.13;;;5.11;85.23
79534;BME280;68982;52.160;6.736;2023-04-02T00:27:53;100942.41;;;5.05;85.90
79534;BME280;68982;52.160;6.736;2023-04-02T00:30:20;100963.03;;;5.12;85.75
79534;BME280;68982;52.160;6.736;2023-04-02T00:32:45;100963.09;;;5.03;85.28
79534;BME280;68982;52.160;6.736;2023-04-02T00:35:18;100965.59;;;5.04;84.32
79534;BME280;68982;52.160;6.736;2023-04-02T00:37:45;100973.63;;;5.04;84.46
79534;BME280;68982;52.160;6.736;2023-04-02T00:40:25;100979.16;;;4.93;84.09
79534;BME280;68982;52.160;6.736;2023-04-02T00:42:53;100972.25;;;5.00;84.08
79534;BME280;68982;52.160;6.736;2023-04-02T00:45:25;100995.44;;;4.99;84.01
79534;BME280;68982;52.160;6.736;2023-04-02T00:47:54;100989.72;;;4.94;84.03
79534;BME280;68982;52.160;6.736;2023-04-02T00:50:35;100992.41;;;4.94;83.91
79534;BME280;68982;52.160;6.736;2023-04-02T00:53:12;100997.00;;;5.02;83.96
79534;BME280;68982;52.160;6.736;2023-04-02T00:55:40;100985.00;;;5.06;84.13
79534;BME280;68982;52.160;6.736;2023-04-02T00:58:29;101001.22;;;5.05;84.34
79534;BME280;68982;52.160;6.736;2023-04-02T01:00:57;101006.56;;;5.05;82.73
79534;BME280;68982;52.160;6.736;2023-04-02T01:03:27;101008.94;;;5.08;83.44
79534;BME280;68982;52.160;6.736;2023-04-02T01:06:02;101014.84;;;5.02;83.10
79534;BME280;68982;52.160;6.736;2023-04-02T01:08:53;101017.84;;;4.98;81.76
79534;BME280;68982;52.160;6.736;2023-04-02T01:14:51;101031.34;;;4.97;82.84
79534;BME280;68982;52.160;6.736;2023-04-02T01:20:32;101046.84;;;4.84;84.20
79534;BME280;68982;52.160;6.736;2023-04-02T01:23:12;101054.47;;;4.78;84.48
79534;BME280;68982;52.160;6.736;2023-04-02T01:25:42;101049.00;;;4.70;83.88
79534;BME280;68982;52.160;6.736;2023-04-02T01:30:56;101057.19;;;4.59;84.13
79534;BME280;68982;52.160;6.736;2023-04-02T01:33:26;101066.75;;;4.62;83.94
79534;BME280;68982;52.160;6.736;2023-04-02T01:36:12;101071.28;;;4.51;84.57
79534;BME280;68982;52.160;6.736;2023-04-02T01:38:52;101066.63;;;4.44;84.72
79534;BME280;68982;52.160;6.736;2023-04-02T01:41:27;101072.09;;;4.42;83.32
79534;BME280;68982;52.160;6.736;2023-04-02T01:44:04;101088.13;;;4.42;83.66
79534;BME280;68982;52.160;6.736;2023-04-02T01:46:33;101086.47;;;4.41;84.06
79534;BME280;68982;52.160;6.736;2023-04-02T01:49:01;101092.94;;;4.39;83.54
79534;BME280;68982;52.160;6.736;2023-04-02T01:51:32;101088.28;;;4.31;84.35
79534;BME280;68982;52.160;6.736;2023-04-02T01:54:00;101110.91;;;4.36;83.85
79534;BME280;68982;52.160;6.736;2023-04-02T01:56:27;101106.72;;;4.34;83.25
79534;BME280;68982;52.160;6.736;2023-04-02T01:58:56;101117.09;;;4.37;83.77
79534;BME280;68982;52.160;6.736;2023-04-02T02:01:25;101122.41;;;4.47;83.60
79534;BME280;68982;52.160;6.736;2023-04-02T02:03:52;101135.63;;;4.48;83.31
79534;BME280;68982;52.160;6.736;2023-04-02T02:06:19;101136.50;;;4.29;83.29
79534;BME280;68982;52.160;6.736;2023-04-02T02:08:52;101131.88;;;4.31;83.33
79534;BME280;68982;52.160;6.736;2023-04-02T02:11:21;101147.72;;;4.33;83.60
79534;BME280;68982;52.160;6.736;2023-04-02T02:13:51;101146.03;;;4.22;83.29
79534;BME280;68982;52.160;6.736;2023-04-02T02:16:18;101144.34;;;4.21;83.64
79534;BME280;68982;52.160;6.736;2023-04-02T02:18:48;101144.06;;;4.24;83.49
79534;BME280;68982;52.160;6.736;2023-04-02T02:21:23;101163.16;;;4.20;83.81
79534;BME280;68982;52.160;6.736;2023-04-02T02:23:52;101158.53;;;4.12;83.46
79534;BME280;68982;52.160;6.736;2023-04-02T02:26:19;101128.84;;;3.86;82.97
79534;BME280;68982;52.160;6.736;2023-04-02T02:28:49;101172.44;;;4.15;83.20
79534;BME280;68982;52.160;6.736;2023-04-02T02:31:19;101171.72;;;4.13;82.39
79534;BME280;68982;52.160;6.736;2023-04-02T02:33:51;101188.72;;;4.12;82.40
79534;BME280;68982;52.160;6.736;2023-04-02T02:36:23;101189.72;;;4.11;81.49
79534;BME280;68982;52.160;6.736;2023-04-02T02:39:04;101187.59;;;4.05;82.12
79534;BME280;68982;52.160;6.736;2023-04-02T02:41:42;101185.47;;;3.99;81.31
79534;BME280;68982;52.160;6.736;2023-04-02T02:46:38;101191.81;;;3.98;81.94
79534;BME280;68982;52.160;6.736;2023-04-02T02:49:05;101191.63;;;3.90;82.19
79534;BME280;68982;52.160;6.736;2023-04-02T02:51:41;101206.25;;;3.95;81.85
79534;BME280;68982;52.160;6.736;2023-04-02T02:54:08;101213.41;;;3.95;81.77
79534;BME280;68982;52.160;6.736;2023-04-02T02:56:38;101207.66;;;4.00;81.31
79534;BME280;68982;52.160;6.736;2023-04-02T02:59:05;101215.81;;;3.98;81.52
79534;BME280;68982;52.160;6.736;2023-04-02T03:01:33;101222.53;;;4.02;79.97
79534;BME280;68982;52.160;6.736;2023-04-02T03:03:59;101234.22;;;4.01;81.50
79534;BME280;68982;52.160;6.736;2023-04-02T03:06:25;101239.56;;;4.01;80.03
79534;BME280;68982;52.160;6.736;2023-04-02T03:09:14;101235.16;;;3.90;80.68
79534;BME280;68982;52.160;6.736;2023-04-02T03:11:48;101243.88;;;3.92;80.34
79534;BME280;68982;52.160;6.736;2023-04-02T03:14:31;101242.16;;;3.82;79.00
79534;BME280;68982;52.160;6.736;2023-04-02T03:17:26;101249.31;;;3.81;80.25
79534;BME280;68982;52.160;6.736;2023-04-02T03:20:23;101267.59;;;3.86;80.34
79534;BME280;68982;52.160;6.736;2023-04-02T03:28:23;101262.66;;;3.81;79.39
79534;BME280;68982;52.160;6.736;2023-04-02T03:38:44;101298.94;;;3.63;79.85
79534;BME280;68982;52.160;6.736;2023-04-02T03:41:21;101298.78;;;3.64;78.91
79534;BME280;68982;52.160;6.736;2023-04-02T03:43:53;101310.94;;;3.57;79.62
79534;BME280;68982;52.160;6.736;2023-04-02T03:46:40;101311.78;;;3.58;79.17
79534;BME280;68982;52.160;6.736;2023-04-02T03:49:12;101318.56;;;3.62;80.24
79534;BME280;68982;52.160;6.736;2023-04-02T03:52:14;101331.19;;;3.60;79.31
79534;BME280;68982;52.160;6.736;2023-04-02T03:54:42;101323.41;;;3.47;78.52
79534;BME280;68982;52.160;6.736;2023-04-02T03:57:22;101336.00;;;3.45;77.73
79534;BME280;68982;52.160;6.736;2023-04-02T03:59:58;101343.81;;;3.37;78.50
79534;BME280;68982;52.160;6.736;2023-04-02T04:02:37;101347.75;;;3.21;77.67
79534;BME280;68982;52.160;6.736;2023-04-02T04:05:06;101359.41;;;3.20;77.87
79534;BME280;68982;52.160;6.736;2023-04-02T04:07:43;101351.41;;;3.20;77.14
79534;BME280;68982;52.160;6.736;2023-04-02T04:10:16;101361.47;;;3.17;77.94
79534;BME280;68982;52.160;6.736;2023-04-02T04:12:46;101374.44;;;3.10;77.17
79534;BME280;68982;52.160;6.736;2023-04-02T04:15:17;101369.13;;;3.10;76.71
79534;BME280;68982;52.160;6.736;2023-04-02T04:20:40;101390.16;;;3.13;77.46
79534;BME280;68982;52.160;6.736;2023-04-02T04:23:26;101387.16;;;3.06;77.36
79534;BME280;68982;52.160;6.736;2023-04-02T04:29:30;101409.34;;;3.07;76.62
79534;BME280;68982;52.160;6.736;2023-04-02T04:32:06;101414.19;;;3.02;77.86
79534;BME280;68982;52.160;6.736;2023-04-02T04:34:41;101424.72;;;3.03;77.22
79534;BME280;68982;52.160;6.736;2023-04-02T04:37:19;101439.25;;;3.10;77.16
79534;BME280;68982;52.160;6.736;2023-04-02T04:40:04;101439.25;;;2.99;76.45
79534;BME280;68982;52.160;6.736;2023-04-02T04:42:35;101449.06;;;3.10;77.51
79534;BME280;68982;52.160;6.736;2023-04-02T04:45:12;101452.47;;;3.01;76.24
79534;BME280;68982;52.160;6.736;2023-04-02T04:47:47;101464.31;;;3.08;77.08
79534;BME280;68982;52.160;6.736;2023-04-02T04:50:20;101473.91;;;2.99;77.29
79534;BME280;68982;52.160;6.736;2023-04-02T04:52:51;101480.94;;;3.00;77.54
79534;BME280;68982;52.160;6.736;2023-04-02T04:55:23;101474.75;;;3.00;77.28
79534;BME280;68982;52.160;6.736;2023-04-02T04:57:54;101478.03;;;2.92;76.51
79534;BME280;68982;52.160;6.736;2023-04-02T05:00:26;101488.22;;;2.87;77.09
79534;BME280;68982;52.160;6.736;2023-04-02T05:05:42;101498.25;;;2.83;77.22
79534;BME280;68982;52.160;6.736;2023-04-02T05:08:19;101506.25;;;2.83;77.57
79534;BME280;68982;52.160;6.736;2023-04-02T05:10:59;101514.72;;;2.88;76.78
79534;BME280;68982;52.160;6.736;2023-04-02T05:19:02;101520.31;;;2.74;76.26
79534;BME280;68982;52.160;6.736;2023-04-02T05:21:53;101529.25;;;2.73;75.31
79534;BME280;68982;52.160;6.736;2023-04-02T05:24:46;101532.41;;;2.67;76.98
79534;BME280;68982;52.160;6.736;2023-04-02T05:27:30;101544.28;;;2.74;75.37
79534;BME280;68982;52.160;6.736;2023-04-02T05:32:41;101546.69;;;2.66;75.15
79534;BME280;68982;52.160;6.736;2023-04-02T05:35:09;101561.69;;;2.56;75.63
79534;BME280;68982;52.160;6.736;2023-04-02T05:37:39;101573.78;;;2.60;76.17
79534;BME280;68982;52.160;6.736;2023-04-02T05:40:12;101579.94;;;2.49;75.58
79534;BME280;68982;52.160;6.736;2023-04-02T05:42:42;101595.06;;;2.60;75.76
79534;BME280;68982;52.160;6.736;2023-04-02T05:47:47;101598.47;;;2.62;75.25
79534;BME280;68982;52.160;6.736;2023-04-02T05:50:25;101603.06;;;2.60;75.36
79534;BME280;68982;52.160;6.736;2023-04-02T05:55:43;101620.47;;;2.53;74.59
79534;BME280;68982;52.160;6.736;2023-04-02T05:58:31;101622.19;;;2.54;75.27
79534;BME280;68982;52.160;6.736;2023-04-02T06:01:04;101647.44;;;2.48;74.88
79534;BME280;68982;52.160;6.736;2023-04-02T06:03:56;101640.44;;;2.47;75.13
79534;BME280;68982;52.160;6.736;2023-04-02T06:09:17;101657.56;;;2.67;74.42
79534;BME280;68982;52.160;6.736;2023-04-02T06:11:50;101668.66;;;2.49;74.59
79534;BME280;68982;52.160;6.736;2023-04-02T06:14:16;101668.88;;;2.58;74.48
79534;BME280;68982;52.160;6.736;2023-04-02T06:16:45;101673.72;;;2.53;75.00
79534;BME280;68982;52.160;6.736;2023-04-02T06:19:27;101684.72;;;2.48;75.29
79534;BME280;68982;52.160;6.736;2023-04-02T06:21:58;101688.91;;;2.39;75.61
79534;BME280;68982;52.160;6.736;2023-04-02T06:24:25;101695.38;;;2.48;75.57
79534;BME280;68982;52.160;6.736;2023-04-02T06:26:58;101706.84;;;2.48;74.99
79534;BME280;68982;52.160;6.736;2023-04-02T06:29:32;101720.41;;;2.45;74.85
79534;BME280;68982;52.160;6.736;2023-04-02T06:32:07;101718.69;;;2.44;75.70
79534;BME280;68982;52.160;6.736;2023-04-02T06:34:35;101727.41;;;2.46;74.38
79534;BME280;68982;52.160;6.736;2023-04-02T06:37:29;101735.31;;;2.48;75.92
79534;BME280;68982;52.160;6.736;2023-04-02T06:39:57;101741.03;;;2.55;75.05
79534;BME280;68982;52.160;6.736;2023-04-02T06:42:27;101749.13;;;2.53;75.98
79534;BME280;68982;52.160;6.736;2023-04-02T06:44:54;101738.81;;;2.48;73.41
79534;BME280;68982;52.160;6.736;2023-04-02T06:52:37;101752.84;;;2.51;73.56
79534;BME280;68982;52.160;6.736;2023-04-02T06:57:44;101755.31;;;2.54;73.94
79534;BME280;68982;52.160;6.736;2023-04-02T07:00:51;101762.63;;;2.63;74.63
79534;BME280;68982;52.160;6.736;2023-04-02T07:03:20;101770.06;;;2.58;72.89
79534;BME280;68982;52.160;6.736;2023-04-02T07:05:47;101779.47;;;2.51;73.26
79534;BME280;68982;52.160;6.736;2023-04-02T07:08:13;101780.81;;;2.45;73.81
79534;BME280;68982;52.160;6.736;2023-04-02T07:10:38;101775.88;;;2.52;74.56
79534;BME280;68982;52.160;6.736;2023-04-02T07:13:04;101788.50;;;2.61;73.28
79534;BME280;68982;52.160;6.736;2023-04-02T07:15:30;101792.69;;;2.76;73.58
79534;BME280;68982;52.160;6.736;2023-04-02T07:17:57;101795.91;;;2.68;73.03
79534;BME280;68982;52.160;6.736;2023-04-02T07:20:34;101797.69;;;2.57;71.90
79534;BME280;68982;52.160;6.736;2023-04-02T07:23:05;101809.56;;;2.64;74.35
79534;BME280;68982;52.160;6.736;2023-04-02T07:25:30;101800.00;;;2.61;73.39
79534;BME280;68982;52.160;6.736;2023-04-02T07:27:56;101817.34;;;2.67;71.79
79534;BME280;68982;52.160;6.736;2023-04-02T07:30:22;101830.72;;;2.78;72.68
79534;BME280;68982;52.160;6.736;2023-04-02T07:32:47;101824.19;;;2.82;71.82
79534;BME280;68982;52.160;6.736;2023-04-02T07:35:12;101827.59;;;2.84;70.56
79534;BME280;68982;52.160;6.736;2023-04-02T07:37:38;101843.75;;;2.94;69.96
79534;BME280;68982;52.160;6.736;2023-04-02T07:40:06;101836.94;;;2.90;69.56
79534;BME280;68982;52.160;6.736;2023-04-02T07:42:43;101846.28;;;2.96;70.23
79534;BME280;68982;52.160;6.736;2023-04-02T07:45:09;101844.53;;;3.07;69.62
79534;BME280;68982;52.160;6.736;2023-04-02T07:47:34;101850.81;;;3.06;68.37
79534;BME280;68982;52.160;6.736;2023-04-02T07:49:59;101852.97;;;3.01;70.56
79534;BME280;68982;52.160;6.736;2023-04-02T07:52:25;101853.44;;;2.95;69.31
79534;BME280;68982;52.160;6.736;2023-04-02T07:54:51;101864.47;;;3.02;70.15
79534;BME280;68982;52.160;6.736;2023-04-02T07:57:16;101867.59;;;2.96;69.24
79534;BME280;68982;52.160;6.736;2023-04-02T07:59:41;101877.69;;;3.03;69.62
79534;BME280;68982;52.160;6.736;2023-04-02T08:02:17;101881.00;;;3.07;70.02
79534;BME280;68982;52.160;6.736;2023-04-02T08:04:43;101882.34;;;3.13;69.14
79534;BME280;68982;52.160;6.736;2023-04-02T08:07:08;101887.72;;;3.24;70.00
79534;BME280;68982;52.160;6.736;2023-04-02T08:09:34;101890.50;;;3.22;69.30
79534;BME280;68982;52.160;6.736;2023-04-02T08:11:59;101891.91;;;3.15;69.37
79534;BME280;68982;52.160;6.736;2023-04-02T08:14:25;101897.50;;;3.12;69.47
79534;BME280;68982;52.160;6.736;2023-04-02T08:16:52;101901.50;;;3.18;70.32
79534;BME280;68982;52.160;6.736;2023-04-02T08:19:18;101900.44;;;3.20;69.57
79534;BME280;68982;52.160;6.736;2023-04-02T08:21:44;101918.63;;;3.02;70.29
79534;BME280;68982;52.160;6.736;2023-04-02T08:24:10;101913.63;;;2.98;70.47
79534;BME280;68982;52.160;6.736;2023-04-02T08:26:35;101924.88;;;3.14;70.06
79534;BME280;68982;52.160;6.736;2023-04-02T08:29:02;101927.53;;;3.14;69.69
79534;BME280;68982;52.160;6.736;2023-04-02T08:31:28;101924.34;;;3.09;70.45
79534;BME280;68982;52.160;6.736;2023-04-02T08:33:54;101930.56;;;3.09;71.01
79534;BME280;68982;52.160;6.736;2023-04-02T08:36:26;101926.81;;;3.12;70.45
79534;BME280;68982;52.160;6.736;2023-04-02T08:38:52;101943.63;;;3.13;69.87
79534;BME280;68982;52.160;6.736;2023-04-02T08:41:22;101940.19;;;3.23;70.39
79534;BME280;68982;52.160;6.736;2023-04-02T08:44:16;101943.28;;;3.17;69.33
79534;BME280;68982;52.160;6.736;2023-04-02T08:46:51;101944.22;;;3.05;68.73
79534;BME280;68982;52.160;6.736;2023-04-02T08:49:34;101951.75;;;3.11;70.26
79534;BME280;68982;52.160;6.736;2023-04-02T08:52:00;101953.44;;;2.88;69.47
79534;BME280;68982;52.160;6.736;2023-04-02T08:54:28;101964.78;;;3.03;69.43
79534;BME280;68982;52.160;6.736;2023-04-02T08:57:03;101967.13;;;3.07;69.18
79534;BME280;68982;52.160;6.736;2023-04-02T08:59:35;101976.75;;;3.21;68.91
79534;BME280;68982;52.160;6.736;2023-04-02T09:02:30;101986.59;;;3.21;68.24
79534;BME280;68982;52.160;6.736;2023-04-02T09:05:03;101988.41;;;3.20;67.95
79534;BME280;68982;52.160;6.736;2023-04-02T09:07:29;101989.59;;;3.16;68.50
79534;BME280;68982;52.160;6.736;2023-04-02T09:09:57;102004.84;;;3.14;68.58
79534;BME280;68982;52.160;6.736;2023-04-02T09:12:28;102004.56;;;3.30;68.16
79534;BME280;68982;52.160;6.736;2023-04-02T09:15:00;102007.97;;;3.32;66.87
79534;BME280;68982;52.160;6.736;2023-04-02T09:17:30;102007.28;;;3.41;68.01
79534;BME280;68982;52.160;6.736;2023-04-02T09:20:18;102022.41;;;3.53;66.89
79534;BME280;68982;52.160;6.736;2023-04-02T09:22:47;102022.25;;;3.55;65.77
79534;BME280;68982;52.160;6.736;2023-04-02T09:25:26;102028.34;;;3.57;64.51
79534;BME280;68982;52.160;6.736;2023-04-02T09:27:54;102032.88;;;3.68;64.11
79534;BME280;68982;52.160;6.736;2023-04-02T09:32:56;102042.13;;;5.25;59.47
79534;BME280;68982;52.160;6.736;2023-04-02T09:38:15;102041.69;;;6.58;56.11
79534;BME280;68982;52.160;6.736;2023-04-02T09:43:21;102041.13;;;6.64;53.81
79534;BME280;68982;52.160;6.736;2023-04-02T09:48:36;102057.09;;;6.24;54.18
79534;BME280;68982;52.160;6.736;2023-04-02T09:53:33;102057.06;;;7.28;52.66
79534;BME280;68982;52.160;6.736;2023-04-02T09:58:39;102069.28;;;8.19;50.07
79534;BME280;68982;52.160;6.736;2023-04-02T10:01:27;102069.13;;;8.69;49.32
79534;BME280;68982;52.160;6.736;2023-04-02T10:03:53;102080.13;;;8.66;46.97
79534;BME280;68982;52.160;6.736;2023-04-02T10:06:19;102081.63;;;8.98;46.93
79534;BME280;68982;52.160;6.736;2023-04-02T10:08:45;102090.97;;;8.94;46.05
79534;BME280;68982;52.160;6.736;2023-04-02T10:11:22;102085.28;;;8.97;46.07
79534;BME280;68982;52.160;6.736;2023-04-02T10:16:25;102090.91;;;9.41;45.54
79534;BME280;68982;52.160;6.736;2023-04-02T10:21:35;102094.19;;;9.07;46.34
79534;BME280;68982;52.160;6.736;2023-04-02T10:24:02;102090.84;;;9.23;46.77
79534;BME280;68982;52.160;6.736;2023-04-02T10:26:40;102095.41;;;8.76;47.62
79534;BME280;68982;52.160;6.736;2023-04-02T10:32:20;102097.97;;;9.88;46.25
79534;BME280;68982;52.160;6.736;2023-04-02T10:45:59;102129.47;;;9.32;45.10
79534;BME280;68982;52.160;6.736;2023-04-02T10:48:48;102123.66;;;8.99;46.24
79534;BME280;68982;52.160;6.736;2023-04-02T10:56:46;102137.81;;;10.48;42.24
79534;BME280;68982;52.160;6.736;2023-04-02T10:59:17;102143.84;;;10.68;43.85
79534;BME280;68982;52.160;6.736;2023-04-02T11:01:45;102143.56;;;10.53;44.11
79534;BME280;68982;52.160;6.736;2023-04-02T11:04:26;102139.22;;;10.34;42.85
79534;BME280;68982;52.160;6.736;2023-04-02T11:07:00;102150.47;;;10.29;44.69
79534;BME280;68982;52.160;6.736;2023-04-02T11:09:30;102158.44;;;9.10;45.81
79534;BME280;68982;52.160;6.736;2023-04-02T11:11:58;102154.09;;;9.09;44.86
79534;BME280;68982;52.160;6.736;2023-04-02T11:14:26;102158.66;;;10.10;43.53
79534;BME280;68982;52.160;6.736;2023-04-02T11:16:54;102149.81;;;10.35;42.36
79534;BME280;68982;52.160;6.736;2023-04-02T11:19:27;102169.44;;;10.28;44.16
79534;BME280;68982;52.160;6.736;2023-04-02T11:32:41;102175.72;;;11.16;41.69
79534;BME280;68982;52.160;6.736;2023-04-02T11:40:50;102176.53;;;11.43;40.46
79534;BME280;68982;52.160;6.736;2023-04-02T11:48:41;102182.41;;;12.23;39.02
79534;BME280;68982;52.160;6.736;2023-04-02T11:53:46;102182.06;;;11.76;40.61
79534;BME280;68982;52.160;6.736;2023-04-02T12:01:49;102191.38;;;12.40;37.83
79534;BME280;68982;52.160;6.736;2023-04-02T12:04:34;102189.34;;;12.67;39.50
79534;BME280;68982;52.160;6.736;2023-04-02T12:07:27;102196.28;;;12.78;37.92
79534;BME280;68982;52.160;6.736;2023-04-02T12:10:15;102204.41;;;12.78;37.68
79534;BME280;68982;52.160;6.736;2023-04-02T12:12:42;102204.66;;;12.01;39.72
79534;BME280;68982;52.160;6.736;2023-04-02T12:18:04;102212.91;;;10.78;40.16
79534;BME280;68982;52.160;6.736;2023-04-02T12:20:30;102203.41;;;11.18;39.85
79534;BME280;68982;52.160;6.736;2023-04-02T12:22:56;102201.91;;;11.50;39.67
79534;BME280;68982;52.160;6.736;2023-04-02T12:25:26;102202.47;;;11.36;40.39
79534;BME280;68982;52.160;6.736;2023-04-02T12:28:16;102205.03;;;11.11;41.31
79534;BME280;68982;52.160;6.736;2023-04-02T12:30:45;102210.28;;;11.39;40.58
79534;BME280;68982;52.160;6.736;2023-04-02T12:33:15;102216.50;;;11.66;39.10
79534;BME280;68982;52.160;6.736;2023-04-02T12:35:42;102219.56;;;11.71;37.44
79534;BME280;68982;52.160;6.736;2023-04-02T12:38:25;102223.19;;;11.53;38.81
79534;BME280;68982;52.160;6.736;2023-04-02T12:40:58;102225.44;;;12.00;38.15
79534;BME280;68982;52.160;6.736;2023-04-02T12:43:25;102223.34;;;11.86;37.91
79534;BME280;68982;52.160;6.736;2023-04-02T12:45:57;102231.13;;;11.89;38.01
79534;BME280;68982;52.160;6.736;2023-04-02T12:48:23;102234.28;;;12.19;36.99
79534;BME280;68982;52.160;6.736;2023-04-02T12:50:50;102232.00;;;12.57;35.98
79534;BME280;68982;52.160;6.736;2023-04-02T12:53:19;102223.88;;;12.90;36.82
79534;BME280;68982;52.160;6.736;2023-04-02T12:55:47;102235.69;;;13.13;38.41
79534;BME280;68982;52.160;6.736;2023-04-02T12:58:25;102233.00;;;12.56;37.38
79534;BME280;68982;52.160;6.736;2023-04-02T13:00:51;102240.19;;;12.14;39.13
79534;BME280;68982;52.160;6.736;2023-04-02T13:03:19;102250.50;;;12.27;38.42
79534;BME280;68982;52.160;6.736;2023-04-02T13:05:54;102240.00;;;12.16;36.80
79534;BME280;68982;52.160;6.736;2023-04-02T13:08:29;102231.63;;;12.43;38.52
79534;BME280;68982;52.160;6.736;2023-04-02T13:10:59;102243.84;;;11.97;36.22
79534;BME280;68982;52.160;6.736;2023-04-02T13:13:31;102244.47;;;12.41;36.50
79534;BME280;68982;52.160;6.736;2023-04-02T13:16:00;102242.47;;;12.52;37.85
79534;BME280;68982;52.160;6.736;2023-04-02T13:18:26;102246.84;;;12.44;37.40
79534;BME280;68982;52.160;6.736;2023-04-02T13:25:53;102251.56;;;12.42;36.78
79534;BME280;68982;52.160;6.736;2023-04-02T13:28:20;102249.19;;;12.31;37.41
79534;BME280;68982;52.160;6.736;2023-04-02T13:30:46;102249.94;;;12.66;35.88
79534;BME280;68982;52.160;6.736;2023-04-02T13:33:13;102256.84;;;12.69;37.85
79534;BME280;68982;52.160;6.736;2023-04-02T13:35:39;102255.22;;;12.09;39.36
79534;BME280;68982;52.160;6.736;2023-04-02T13:38:04;102250.91;;;12.49;36.68
79534;BME280;68982;52.160;6.736;2023-04-02T13:40:31;102251.13;;;12.72;37.12
79534;BME280;68982;52.160;6.736;2023-04-02T13:42:57;102251.09;;;12.55;38.34
79534;BME280;68982;52.160;6.736;2023-04-02T13:45:28;102255.66;;;12.55;37.62
79534;BME280;68982;52.160;6.736;2023-04-02T13:47:55;102260.59;;;12.68;36.69
79534;BME280;68982;52.160;6.736;2023-04-02T13:50:26;102256.53;;;12.63;35.88
79534;BME280;68982;52.160;6.736;2023-04-02T13:52:53;102261.44;;;12.84;36.09
79534;BME280;68982;52.160;6.736;2023-04-02T13:55:23;102271.91;;;12.71;37.47
79534;BME280;68982;52.160;6.736;2023-04-02T13:57:50;102266.84;;;12.68;36.45
79534;BME280;68982;52.160;6.736;2023-04-02T14:00:16;102271.88;;;12.38;37.25
79534;BME280;68982;52.160;6.736;2023-04-02T14:03:07;102275.28;;;12.57;37.20
79534;BME280;68982;52.160;6.736;2023-04-02T14:08:42;102276.53;;;13.28;36.05
79534;BME280;68982;52.160;6.736;2023-04-02T14:11:49;102288.50;;;13.09;36.21
79534;BME280;68982;52.160;6.736;2023-04-02T14:14:49;102286.44;;;12.62;37.21
79534;BME280;68982;52.160;6.736;2023-04-02T14:20:28;102298.06;;;11.95;39.19
79534;BME280;68982;52.160;6.736;2023-04-02T14:26:45;102291.84;;;12.54;36.65
79534;BME280;68982;52.160;6.736;2023-04-02T14:29:07;102286.34;;;12.21;37.56
79534;BME280;68982;52.160;6.736;2023-04-02T14:31:46;102284.53;;;12.38;37.97
79534;BME280;68982;52.160;6.736;2023-04-02T14:37:32;102296.22;;;12.38;40.12
79534;BME280;68982;52.160;6.736;2023-04-02T14:43:31;102276.53;;;11.86;36.59
79534;BME280;68982;52.160;6.736;2023-04-02T14:46:03;102281.69;;;11.71;37.71
79534;BME280;68982;52.160;6.736;2023-04-02T14:51:06;102296.09;;;11.79;37.80
79534;BME280;68982;52.160;6.736;2023-04-02T14:53:46;102300.69;;;11.87;37.61
79534;BME280;68982;52.160;6.736;2023-04-02T14:56:14;102298.41;;;12.00;37.21
79534;BME280;68982;52.160;6.736;2023-04-02T14:58:43;102294.44;;;12.13;38.40
79534;BME280;68982;52.160;6.736;2023-04-02T15:01:26;102311.38;;;12.23;37.02
79534;BME280;68982;52.160;6.736;2023-04-02T15:04:00;102300.31;;;11.74;38.13
79534;BME280;68982;52.160;6.736;2023-04-02T15:06:33;102311.31;;;11.28;38.34
79534;BME280;68982;52.160;6.736;2023-04-02T15:09:16;102304.97;;;11.37;38.72
79534;BME280;68982;52.160;6.736;2023-04-02T15:11:50;102319.13;;;11.13;38.82
79534;BME280;68982;52.160;6.736;2023-04-02T15:16:49;102308.38;;;11.22;41.26
79534;BME280;68982;52.160;6.736;2023-04-02T15:19:16;102313.94;;;11.20;39.64
79534;BME280;68982;52.160;6.736;2023-04-02T15:21:55;102304.31;;;11.17;39.24
79534;BME280;68982;52.160;6.736;2023-04-02T15:29:56;102316.81;;;11.45;39.74
79534;BME280;68982;52.160;6.736;2023-04-02T15:32:28;102314.13;;;11.45;39.93
79534;BME280;68982;52.160;6.736;2023-04-02T15:35:06;102308.81;;;11.35;40.08
79534;BME280;68982;52.160;6.736;2023-04-02T15:37:56;102318.41;;;11.11;41.33
79534;BME280;68982;52.160;6.736;2023-04-02T15:51:01;102348.03;;;10.67;40.71
79534;BME280;68982;52.160;6.736;2023-04-02T15:53:44;102346.81;;;10.79;41.73
79534;BME280;68982;52.160;6.736;2023-04-02T15:56:33;102354.34;;;10.76;40.80
79534;BME280;68982;52.160;6.736;2023-04-02T15:59:10;102354.88;;;10.62;41.54
79534;BME280;68982;52.160;6.736;2023-04-02T16:07:30;102364.38;;;10.38;41.55
79534;BME280;68982;52.160;6.736;2023-04-02T16:16:03;102366.00;;;10.21;41.83
79534;BME280;68982;52.160;6.736;2023-04-02T16:21:25;102368.13;;;10.17;41.85
79534;BME280;68982;52.160;6.736;2023-04-02T16:23:52;102367.44;;;10.15;42.03
79534;BME280;68982;52.160;6.736;2023-04-02T16:47:15;102389.00;;;9.59;44.94
79534;BME280;68982;52.160;6.736;2023-04-02T16:55:02;102398.22;;;9.46;43.63
79534;BME280;68982;52.160;6.736;2023-04-02T16:57:36;102399.94;;;9.38;43.45
79534;BME280;68982;52.160;6.736;2023-04-02T17:00:41;102409.16;;;9.35;44.35
79534;BME280;68982;52.160;6.736;2023-04-02T17:03:35;102408.84;;;9.38;44.56
79534;BME280;68982;52.160;6.736;2023-04-02T17:06:07;102411.41;;;9.30;44.25
79534;BME280;68982;52.160;6.736;2023-04-02T17:09:00;102409.28;;;9.24;45.65